sensor_id;sensor_type;location;lat;lon;timestamp;pressure;altitude;pressure_sealevel;temperature;humidity
57616;BME280;43816;52.054;-9.494;2023-04-24T00:00:07;100411.00;;;22.00;35.46
57616;BME280;43816;52.054;-9.494;2023-04-24T00:00:17;100448.00;;;22.24;35.16
57616;BME280;43816;52.054;-9.494;2023-04-24T00:00:27;100459.03;;;22.31;35.58
57616;BME280;43816;52.054;-9.494;2023-04-24T00:00:38;100448.84;;;22.25;35.49
57616;BME280;43816;52.054;-9.494;2023-04-24T00:00:48;100442.47;;;22.17;35.44
57616;BME280;43816;52.054;-9.494;2023-04-24T00:01:19;100459.03;;;22.31;35.56
57616;BME280;43816;52.054;-9.494;2023-04-24T00:01:29;100412.88;;;21.99;35.44
57616;BME280;43816;52.054;-9.494;2023-04-24T00:01:40;100405.28;;;21.95;35.48
57616;BME280;43816;52.054;-9.494;2023-04-24T00:01:50;100420.09;;;22.07;35.44
57616;BME280;43816;52.054;-9.494;2023-04-24T00:02:03;100405.50;;;22.00;35.43
57616;BME280;43816;52.054;-9.494;2023-04-24T00:02:17;100415.22;;;22.03;35.61
57616;BME280;43816;52.054;-9.494;2023-04-24T00:02:27;100427.28;;;22.08;35.64
57616;BME280;43816;52.054;-9.494;2023-04-24T00:02:38;100395.94;;;21.89;35.54
57616;BME280;43816;52.054;-9.494;2023-04-24T00:02:48;100448.19;;;22.23;35.59
57616;BME280;43816;52.054;-9.494;2023-04-24T00:02:59;100439.94;;;22.16;35.57
57616;BME280;43816;52.054;-9.494;2023-04-24T00:03:09;100451.84;;;22.30;35.49
57616;BME280;43816;52.054;-9.494;2023-04-24T00:03:19;100443.34;;;22.25;35.70
57616;BME280;43816;52.054;-9.494;2023-04-24T00:03:30;100446.94;;;22.18;35.35
57616;BME280;43816;52.054;-9.494;2023-04-24T00:03:40;100434.47;;;22.16;35.66
57616;BME280;43816;52.054;-9.494;2023-04-24T00:03:50;100444.63;;;22.22;35.48
57616;BME280;43816;52.054;-9.494;2023-04-24T00:04:01;100445.06;;;22.26;35.54
57616;BME280;43816;52.054;-9.494;2023-04-24T00:04:11;100453.09;;;22.27;35.63
57616;BME280;43816;52.054;-9.494;2023-04-24T00:04:21;100454.81;;;22.28;35.58
57616;BME280;43816;52.054;-9.494;2023-04-24T00:04:32;100447.16;;;22.24;35.63
57616;BME280;43816;52.054;-9.494;2023-04-24T00:04:45;100443.78;;;22.22;35.53
57616;BME280;43816;52.054;-9.494;2023-04-24T00:04:56;100444.63;;;22.22;35.49
57616;BME280;43816;52.054;-9.494;2023-04-24T00:05:09;100444.63;;;22.22;35.72
57616;BME280;43816;52.054;-9.494;2023-04-24T00:05:28;100451.00;;;22.29;35.89
57616;BME280;43816;52.054;-9.494;2023-04-24T00:05:39;100453.91;;;22.28;35.80
57616;BME280;43816;52.054;-9.494;2023-04-24T00:05:49;100455.66;;;22.29;35.38
57616;BME280;43816;52.054;-9.494;2023-04-24T00:06:05;100445.25;;;22.24;35.04
57616;BME280;43816;52.054;-9.494;2023-04-24T00:06:16;100435.28;;;22.16;35.61
57616;BME280;43816;52.054;-9.494;2023-04-24T00:06:26;100454.81;;;22.28;35.36
57616;BME280;43816;52.054;-9.494;2023-04-24T00:06:40;100442.91;;;22.21;35.59
57616;BME280;43816;52.054;-9.494;2023-04-24T00:06:50;100454.81;;;22.28;35.29
57616;BME280;43816;52.054;-9.494;2023-04-24T00:07:01;100449.25;;;22.22;35.48
57616;BME280;43816;52.054;-9.494;2023-04-24T00:07:12;100450.94;;;22.23;35.65
57616;BME280;43816;52.054;-9.494;2023-04-24T00:07:25;100447.97;;;22.17;35.41
57616;BME280;43816;52.054;-9.494;2023-04-24T00:07:35;100443.97;;;22.20;35.55
57616;BME280;43816;52.054;-9.494;2023-04-24T00:07:46;100438.91;;;22.17;35.59
57616;BME280;43816;52.054;-9.494;2023-04-24T00:07:56;100456.84;;;22.26;35.47
57616;BME280;43816;52.054;-9.494;2023-04-24T00:08:36;100377.34;;;21.78;35.52
57616;BME280;43816;52.054;-9.494;2023-04-24T00:08:47;100459.78;;;22.25;35.55
57616;BME280;43816;52.054;-9.494;2023-04-24T00:08:57;100447.13;;;22.17;35.49
57616;BME280;43816;52.054;-9.494;2023-04-24T00:09:13;100436.16;;;22.17;35.57
57616;BME280;43816;52.054;-9.494;2023-04-24T00:09:23;100426.59;;;22.06;35.56
57616;BME280;43816;52.054;-9.494;2023-04-24T00:09:34;100442.47;;;22.17;35.51
57616;BME280;43816;52.054;-9.494;2023-04-24T00:09:44;100442.69;;;22.16;35.47
57616;BME280;43816;52.054;-9.494;2023-04-24T00:09:54;100446.25;;;22.16;35.54
57616;BME280;43816;52.054;-9.494;2023-04-24T00:10:06;100448.41;;;22.21;35.53
57616;BME280;43816;52.054;-9.494;2023-04-24T00:10:16;100458.13;;;22.24;35.29
57616;BME280;43816;52.054;-9.494;2023-04-24T00:10:27;100418.78;;;22.03;35.48
57616;BME280;43816;52.054;-9.494;2023-04-24T00:10:37;100447.56;;;22.21;35.44
57616;BME280;43816;52.054;-9.494;2023-04-24T00:10:47;100460.47;;;22.27;35.39
57616;BME280;43816;52.054;-9.494;2023-04-24T00:10:58;100435.53;;;22.15;35.50
57616;BME280;43816;52.054;-9.494;2023-04-24T00:11:08;100454.75;;;22.22;35.50
57616;BME280;43816;52.054;-9.494;2023-04-24T00:11:22;100444.19;;;22.18;35.45
57616;BME280;43816;52.054;-9.494;2023-04-24T00:11:32;100465.94;;;22.27;35.40
57616;BME280;43816;52.054;-9.494;2023-04-24T00:11:46;100448.81;;;22.18;35.63
57616;BME280;43816;52.054;-9.494;2023-04-24T00:11:56;100458.13;;;22.24;35.35
57616;BME280;43816;52.054;-9.494;2023-04-24T00:12:06;100440.13;;;22.14;35.40
57616;BME280;43816;52.054;-9.494;2023-04-24T00:12:26;100461.50;;;22.26;35.55
57616;BME280;43816;52.054;-9.494;2023-04-24T00:12:36;100451.78;;;22.23;35.54
57616;BME280;43816;52.054;-9.494;2023-04-24T00:12:50;100456.41;;;22.23;35.81
57616;BME280;43816;52.054;-9.494;2023-04-24T00:13:00;100456.41;;;22.23;35.35
57616;BME280;43816;52.054;-9.494;2023-04-24T00:13:11;100441.84;;;22.15;35.53
57616;BME280;43816;52.054;-9.494;2023-04-24T00:13:24;100448.34;;;22.14;35.50
57616;BME280;43816;52.054;-9.494;2023-04-24T00:13:35;100455.59;;;22.22;35.69
57616;BME280;43816;52.054;-9.494;2023-04-24T00:13:48;100460.00;;;22.23;35.45
57616;BME280;43816;52.054;-9.494;2023-04-24T00:14:01;100449.66;;;22.18;35.57
57616;BME280;43816;52.054;-9.494;2023-04-24T00:14:12;100454.75;;;22.22;35.50
57616;BME280;43816;52.054;-9.494;2023-04-24T00:14:22;100437.16;;;22.09;35.42
57616;BME280;43816;52.054;-9.494;2023-04-24T00:14:42;100449.00;;;22.16;35.65
57616;BME280;43816;52.054;-9.494;2023-04-24T00:14:52;100461.25;;;22.21;35.46
57616;BME280;43816;52.054;-9.494;2023-04-24T00:15:03;100449.66;;;22.18;35.52
57616;BME280;43816;52.054;-9.494;2023-04-24T00:15:14;100423.22;;;22.04;35.50
57616;BME280;43816;52.054;-9.494;2023-04-24T00:15:24;100428.06;;;22.02;35.61
57616;BME280;43816;52.054;-9.494;2023-04-24T00:15:34;100427.88;;;22.04;35.50
57616;BME280;43816;52.054;-9.494;2023-04-24T00:15:45;100442.88;;;22.14;35.36
57616;BME280;43816;52.054;-9.494;2023-04-24T00:15:55;100457.50;;;22.22;35.75
57616;BME280;43816;52.054;-9.494;2023-04-24T00:16:09;100447.31;;;22.15;35.68
57616;BME280;43816;52.054;-9.494;2023-04-24T00:16:25;100456.63;;;22.21;35.55
57616;BME280;43816;52.054;-9.494;2023-04-24T00:16:36;100458.13;;;22.24;35.47
57616;BME280;43816;52.054;-9.494;2023-04-24T00:16:46;100462.97;;;22.22;35.75
57616;BME280;43816;52.054;-9.494;2023-04-24T00:16:56;100451.75;;;22.16;35.49
57616;BME280;43816;52.054;-9.494;2023-04-24T00:17:06;100456.19;;;22.17;35.64
57616;BME280;43816;52.054;-9.494;2023-04-24T00:17:17;100464.00;;;22.21;35.58
57616;BME280;43816;52.054;-9.494;2023-04-24T00:17:27;100450.06;;;22.15;35.62
57616;BME280;43816;52.054;-9.494;2023-04-24T00:17:38;100464.63;;;22.23;35.58
57616;BME280;43816;52.054;-9.494;2023-04-24T00:17:48;100450.47;;;22.12;35.53
57616;BME280;43816;52.054;-9.494;2023-04-24T00:17:58;100465.03;;;22.20;35.64
57616;BME280;43816;52.054;-9.494;2023-04-24T00:18:09;100465.72;;;22.22;35.66
57616;BME280;43816;52.054;-9.494;2023-04-24T00:18:19;100458.53;;;22.21;35.72
57616;BME280;43816;52.054;-9.494;2023-04-24T00:18:29;100431.44;;;22.04;35.44
57616;BME280;43816;52.054;-9.494;2023-04-24T00:18:42;100464.84;;;22.21;35.62
57616;BME280;43816;52.054;-9.494;2023-04-24T00:18:52;100456.19;;;22.17;35.50
57616;BME280;43816;52.054;-9.494;2023-04-24T00:19:03;100460.22;;;22.22;35.64
57616;BME280;43816;52.054;-9.494;2023-04-24T00:19:13;100457.03;;;22.18;35.66
57616;BME280;43816;52.054;-9.494;2023-04-24T00:19:23;100455.53;;;22.15;35.73
57616;BME280;43816;52.054;-9.494;2023-04-24T00:19:34;100471.81;;;22.24;35.37
57616;BME280;43816;52.054;-9.494;2023-04-24T00:19:44;100461.47;;;22.19;35.53
57616;BME280;43816;52.054;-9.494;2023-04-24T00:19:57;100447.53;;;22.14;35.69
57616;BME280;43816;52.054;-9.494;2023-04-24T00:20:08;100464.00;;;22.21;35.43
57616;BME280;43816;52.054;-9.494;2023-04-24T00:20:18;100439.66;;;22.04;35.55
57616;BME280;43816;52.054;-9.494;2023-04-24T00:20:29;100465.72;;;22.22;35.53
57616;BME280;43816;52.054;-9.494;2023-04-24T00:20:39;100458.28;;;22.15;35.77
57616;BME280;43816;52.054;-9.494;2023-04-24T00:20:55;100464.59;;;22.16;35.61
57616;BME280;43816;52.054;-9.494;2023-04-24T00:21:06;100465.66;;;22.15;35.54
57616;BME280;43816;52.054;-9.494;2023-04-24T00:21:19;100459.75;;;22.18;35.46
57616;BME280;43816;52.054;-9.494;2023-04-24T00:21:29;100463.38;;;22.18;35.50
57616;BME280;43816;52.054;-9.494;2023-04-24T00:21:40;100468.19;;;22.16;35.86
57616;BME280;43816;52.054;-9.494;2023-04-24T00:21:53;100457.22;;;22.16;35.69
57616;BME280;43816;52.054;-9.494;2023-04-24T00:22:04;100474.75;;;22.22;35.65
57616;BME280;43816;52.054;-9.494;2023-04-24T00:22:14;100451.28;;;22.13;35.76
57616;BME280;43816;52.054;-9.494;2023-04-24T00:22:25;100429.94;;;21.95;35.53
57616;BME280;43816;52.054;-9.494;2023-04-24T00:22:35;100421.44;;;21.90;35.45
57616;BME280;43816;52.054;-9.494;2023-04-24T00:22:46;100440.94;;;22.02;35.42
57616;BME280;43816;52.054;-9.494;2023-04-24T00:22:59;100423.16;;;21.91;35.47
57616;BME280;43816;52.054;-9.494;2023-04-24T00:23:10;100432.00;;;21.93;35.29
57616;BME280;43816;52.054;-9.494;2023-04-24T00:23:20;100403.88;;;21.77;35.44
57616;BME280;43816;52.054;-9.494;2023-04-24T00:23:31;100433.94;;;21.99;35.54
57616;BME280;43816;52.054;-9.494;2023-04-24T00:23:41;100428.44;;;21.92;35.66
57616;BME280;43816;52.054;-9.494;2023-04-24T00:23:52;100436.03;;;21.97;35.50
57616;BME280;43816;52.054;-9.494;2023-04-24T00:24:05;100378.50;;;21.62;35.49
57616;BME280;43816;52.054;-9.494;2023-04-24T00:24:21;100415.28;;;21.81;35.69
57616;BME280;43816;52.054;-9.494;2023-04-24T00:24:34;100378.06;;;21.58;35.57
57616;BME280;43816;52.054;-9.494;2023-04-24T00:24:44;100433.50;;;21.95;35.50
57616;BME280;43816;52.054;-9.494;2023-04-24T00:24:54;100460.16;;;22.08;35.62
57616;BME280;43816;52.054;-9.494;2023-04-24T00:25:08;100408.13;;;21.80;35.45
57616;BME280;43816;52.054;-9.494;2023-04-24T00:25:18;100473.25;;;22.20;35.46
57616;BME280;43816;52.054;-9.494;2023-04-24T00:25:28;100449.38;;;22.07;35.85
57616;BME280;43816;52.054;-9.494;2023-04-24T00:25:39;100444.75;;;22.07;35.66
57616;BME280;43816;52.054;-9.494;2023-04-24T00:25:49;100476.00;;;22.20;35.72
57616;BME280;43816;52.054;-9.494;2023-04-24T00:26:00;100456.34;;;22.09;35.40
57616;BME280;43816;52.054;-9.494;2023-04-24T00:26:13;100448.28;;;22.01;35.69
57616;BME280;43816;52.054;-9.494;2023-04-24T00:26:24;100453.16;;;22.06;35.58
57616;BME280;43816;52.054;-9.494;2023-04-24T00:26:34;100454.00;;;22.06;35.67
57616;BME280;43816;52.054;-9.494;2023-04-24T00:26:45;100459.72;;;22.11;35.57
57616;BME280;43816;52.054;-9.494;2023-04-24T00:26:55;100455.69;;;22.07;35.47
57616;BME280;43816;52.054;-9.494;2023-04-24T00:27:05;100477.91;;;22.19;35.52
57616;BME280;43816;52.054;-9.494;2023-04-24T00:27:16;100457.19;;;22.10;35.41
57616;BME280;43816;52.054;-9.494;2023-04-24T00:27:26;100463.13;;;22.13;35.69
57616;BME280;43816;52.054;-9.494;2023-04-24T00:27:36;100465.00;;;22.13;35.31
57616;BME280;43816;52.054;-9.494;2023-04-24T00:27:47;100478.28;;;22.16;35.51
57616;BME280;43816;52.054;-9.494;2023-04-24T00:27:57;100475.56;;;22.16;35.54
57616;BME280;43816;52.054;-9.494;2023-04-24T00:28:07;100466.06;;;22.12;35.63
57616;BME280;43816;52.054;-9.494;2023-04-24T00:28:18;100460.97;;;22.09;35.72
57616;BME280;43816;52.054;-9.494;2023-04-24T00:28:28;100468.41;;;22.15;35.47
57616;BME280;43816;52.054;-9.494;2023-04-24T00:28:39;100470.28;;;22.14;35.55
57616;BME280;43816;52.054;-9.494;2023-04-24T00:28:59;100465.19;;;22.11;35.65
57616;BME280;43816;52.054;-9.494;2023-04-24T00:29:25;100445.72;;;21.99;35.53
57616;BME280;43816;52.054;-9.494;2023-04-24T00:29:35;100414.44;;;21.80;35.60
57616;BME280;43816;52.054;-9.494;2023-04-24T00:29:45;100471.16;;;22.15;35.68
57616;BME280;43816;52.054;-9.494;2023-04-24T00:30:02;100410.63;;;21.81;35.49
57616;BME280;43816;52.054;-9.494;2023-04-24T00:30:34;100442.34;;;21.97;35.68
57616;BME280;43816;52.054;-9.494;2023-04-24T00:30:46;100468.41;;;22.15;35.49
57616;BME280;43816;52.054;-9.494;2023-04-24T00:30:56;100432.59;;;21.88;35.42
57616;BME280;43816;52.054;-9.494;2023-04-24T00:31:07;100442.75;;;21.94;35.15
57616;BME280;43816;52.054;-9.494;2023-04-24T00:31:25;100424.13;;;21.83;35.64
57616;BME280;43816;52.054;-9.494;2023-04-24T00:31:35;100443.41;;;21.96;35.60
57616;BME280;43816;52.054;-9.494;2023-04-24T00:31:45;100442.75;;;21.94;35.57
57616;BME280;43816;52.054;-9.494;2023-04-24T00:32:02;100407.41;;;21.71;35.55
57616;BME280;43816;52.054;-9.494;2023-04-24T00:32:13;100432.41;;;21.90;35.59
57616;BME280;43816;52.054;-9.494;2023-04-24T00:32:29;100435.13;;;21.90;35.44
57616;BME280;43816;52.054;-9.494;2023-04-24T00:32:40;100386.72;;;21.62;35.56
57616;BME280;43816;52.054;-9.494;2023-04-24T00:32:50;100469.84;;;22.11;35.73
57616;BME280;43816;52.054;-9.494;2023-04-24T00:33:00;100448.03;;;21.96;35.79
57616;BME280;43816;52.054;-9.494;2023-04-24T00:33:11;100387.75;;;21.61;35.71
57616;BME280;43816;52.054;-9.494;2023-04-24T00:33:24;100394.53;;;21.65;35.54
57616;BME280;43816;52.054;-9.494;2023-04-24T00:33:34;100418.84;;;21.81;35.55
57616;BME280;43816;52.054;-9.494;2023-04-24T00:33:47;100404.03;;;21.69;35.33
57616;BME280;43816;52.054;-9.494;2023-04-24T00:34:04;100357.47;;;21.41;35.66
57616;BME280;43816;52.054;-9.494;2023-04-24T00:34:14;100428.56;;;21.84;35.51
57616;BME280;43816;52.054;-9.494;2023-04-24T00:34:24;100446.38;;;21.95;35.68
57616;BME280;43816;52.054;-9.494;2023-04-24T00:34:37;100475.75;;;22.14;35.48
57616;BME280;43816;52.054;-9.494;2023-04-24T00:34:48;100451.88;;;22.02;35.49
57616;BME280;43816;52.054;-9.494;2023-04-24T00:35:00;100478.91;;;22.11;35.56
57616;BME280;43816;52.054;-9.494;2023-04-24T00:35:10;100454.16;;;21.98;35.61
57616;BME280;43816;52.054;-9.494;2023-04-24T00:35:21;100410.16;;;21.71;35.60
57616;BME280;43816;52.054;-9.494;2023-04-24T00:35:31;100477.84;;;22.12;35.44
57616;BME280;43816;52.054;-9.494;2023-04-24T00:35:41;100454.41;;;22.03;35.41
57616;BME280;43816;52.054;-9.494;2023-04-24T00:35:55;100467.06;;;22.04;35.69
57616;BME280;43816;52.054;-9.494;2023-04-24T00:36:05;100458.19;;;22.02;35.37
57616;BME280;43816;52.054;-9.494;2023-04-24T00:36:15;100471.09;;;22.08;35.65
57616;BME280;43816;52.054;-9.494;2023-04-24T00:36:31;100475.13;;;22.12;35.40
57616;BME280;43816;52.054;-9.494;2023-04-24T00:36:41;100407.41;;;21.71;35.67
57616;BME280;43816;52.054;-9.494;2023-04-24T00:36:52;100482.69;;;22.10;35.69
57616;BME280;43816;52.054;-9.494;2023-04-24T00:37:02;100456.88;;;21.98;35.61
57616;BME280;43816;52.054;-9.494;2023-04-24T00:37:12;100446.56;;;21.93;35.41
57616;BME280;43816;52.054;-9.494;2023-04-24T00:37:23;100445.69;;;21.93;35.63
57616;BME280;43816;52.054;-9.494;2023-04-24T00:37:33;100463.88;;;22.01;35.76
57616;BME280;43816;52.054;-9.494;2023-04-24T00:37:43;100478.25;;;22.09;35.70
57616;BME280;43816;52.054;-9.494;2023-04-24T00:38:02;100459.63;;;21.98;35.56
57616;BME280;43816;52.054;-9.494;2023-04-24T00:38:13;100429.81;;;21.81;35.55
57616;BME280;43816;52.054;-9.494;2023-04-24T00:38:23;100465.16;;;22.05;35.64
57616;BME280;43816;52.054;-9.494;2023-04-24T00:38:33;100458.41;;;22.01;35.50
57616;BME280;43816;52.054;-9.494;2023-04-24T00:38:44;100459.63;;;21.98;35.55
57616;BME280;43816;52.054;-9.494;2023-04-24T00:38:54;100482.06;;;22.08;35.26
57616;BME280;43816;52.054;-9.494;2023-04-24T00:39:05;100467.69;;;22.06;35.42
57616;BME280;43816;52.054;-9.494;2023-04-24T00:39:15;100465.59;;;22.02;35.61
57616;BME280;43816;52.054;-9.494;2023-04-24T00:39:25;100467.50;;;22.08;35.65
57616;BME280;43816;52.054;-9.494;2023-04-24T00:39:36;100467.06;;;22.04;35.48
57616;BME280;43816;52.054;-9.494;2023-04-24T00:39:46;100471.09;;;22.08;35.61
57616;BME280;43816;52.054;-9.494;2023-04-24T00:39:56;100476.34;;;22.10;35.81
57616;BME280;43816;52.054;-9.494;2023-04-24T00:40:07;100478.25;;;22.09;35.62
57616;BME280;43816;52.054;-9.494;2023-04-24T00:40:20;100475.28;;;22.04;35.40
57616;BME280;43816;52.054;-9.494;2023-04-24T00:40:31;100457.50;;;21.93;35.63
57616;BME280;43816;52.054;-9.494;2023-04-24T00:40:44;100467.66;;;21.99;35.46
57616;BME280;43816;52.054;-9.494;2023-04-24T00:40:54;100475.91;;;22.06;35.56
57616;BME280;43816;52.054;-9.494;2023-04-24T00:41:05;100456.25;;;21.96;35.47
57616;BME280;43816;52.054;-9.494;2023-04-24T00:41:21;100449.69;;;21.90;35.40
57616;BME280;43816;52.054;-9.494;2023-04-24T00:41:32;100483.75;;;22.09;35.75
57616;BME280;43816;52.054;-9.494;2023-04-24T00:41:52;100435.94;;;21.84;35.54
57616;BME280;43816;52.054;-9.494;2023-04-24T00:42:02;100470.38;;;21.99;35.66
57616;BME280;43816;52.054;-9.494;2023-04-24T00:42:13;100463.84;;;21.94;35.64
57616;BME280;43816;52.054;-9.494;2023-04-24T00:42:23;100431.28;;;21.77;35.73
57616;BME280;43816;52.054;-9.494;2023-04-24T00:42:34;100472.72;;;22.03;35.48
57616;BME280;43816;52.054;-9.494;2023-04-24T00:42:44;100455.38;;;21.89;35.71
57616;BME280;43816;52.054;-9.494;2023-04-24T00:42:55;100479.91;;;22.04;35.69
57616;BME280;43816;52.054;-9.494;2023-04-24T00:43:06;100474.63;;;22.02;35.52
57616;BME280;43816;52.054;-9.494;2023-04-24T00:43:16;100475.88;;;21.99;35.77
57616;BME280;43816;52.054;-9.494;2023-04-24T00:43:27;100473.56;;;22.03;35.53
57616;BME280;43816;52.054;-9.494;2023-04-24T00:43:37;100472.53;;;22.04;35.66
57616;BME280;43816;52.054;-9.494;2023-04-24T00:43:54;100480.34;;;22.07;35.63
57616;BME280;43816;52.054;-9.494;2023-04-24T00:44:04;100470.59;;;21.98;35.52
57616;BME280;43816;52.054;-9.494;2023-04-24T00:44:14;100451.56;;;21.90;35.96
57616;BME280;43816;52.054;-9.494;2023-04-24T00:44:25;100475.03;;;21.99;35.63
57616;BME280;43816;52.054;-9.494;2023-04-24T00:44:35;100465.31;;;21.96;35.85
57616;BME280;43816;52.054;-9.494;2023-04-24T00:44:45;100477.38;;;22.02;35.76
57616;BME280;43816;52.054;-9.494;2023-04-24T00:44:56;100476.06;;;21.98;35.32
57616;BME280;43816;52.054;-9.494;2023-04-24T00:45:08;100463.63;;;21.95;35.42
57616;BME280;43816;52.054;-9.494;2023-04-24T00:45:18;100477.78;;;21.99;35.71
57616;BME280;43816;52.054;-9.494;2023-04-24T00:45:29;100469.56;;;21.99;35.37
57616;BME280;43816;52.054;-9.494;2023-04-24T00:45:39;100474.63;;;22.02;35.65
57616;BME280;43816;52.054;-9.494;2023-04-24T00:45:50;100477.38;;;22.02;35.69
57616;BME280;43816;52.054;-9.494;2023-04-24T00:46:00;100476.53;;;22.02;35.54
57616;BME280;43816;52.054;-9.494;2023-04-24T00:46:11;100474.00;;;22.00;35.51
57616;BME280;43816;52.054;-9.494;2023-04-24T00:46:22;100468.28;;;21.95;35.71
57616;BME280;43816;52.054;-9.494;2023-04-24T00:46:32;100469.75;;;21.97;35.30
57616;BME280;43816;52.054;-9.494;2023-04-24T00:46:46;100468.91;;;21.97;35.75
57616;BME280;43816;52.054;-9.494;2023-04-24T00:46:58;100468.91;;;21.97;35.70
57616;BME280;43816;52.054;-9.494;2023-04-24T00:47:09;100481.16;;;22.01;35.65
57616;BME280;43816;52.054;-9.494;2023-04-24T00:47:21;100469.56;;;21.99;35.55
57616;BME280;43816;52.054;-9.494;2023-04-24T00:47:33;100482.84;;;22.02;35.59
57616;BME280;43816;52.054;-9.494;2023-04-24T00:47:43;100466.38;;;21.95;35.69
57616;BME280;43816;52.054;-9.494;2023-04-24T00:47:54;100479.03;;;22.03;35.69
57616;BME280;43816;52.054;-9.494;2023-04-24T00:48:05;100487.25;;;22.03;35.65
57616;BME280;43816;52.054;-9.494;2023-04-24T00:48:16;100445.19;;;21.83;35.46
57616;BME280;43816;52.054;-9.494;2023-04-24T00:48:26;100462.13;;;21.93;35.42
57616;BME280;43816;52.054;-9.494;2023-04-24T00:48:40;100484.53;;;22.03;35.49
57616;BME280;43816;52.054;-9.494;2023-04-24T00:48:50;100462.53;;;21.90;35.74
57616;BME280;43816;52.054;-9.494;2023-04-24T00:49:01;100459.97;;;21.88;35.74
57616;BME280;43816;52.054;-9.494;2023-04-24T00:49:13;100468.88;;;21.90;35.44
57616;BME280;43816;52.054;-9.494;2023-04-24T00:49:26;100464.22;;;21.91;35.73
57616;BME280;43816;52.054;-9.494;2023-04-24T00:49:37;100473.53;;;21.96;35.44
57616;BME280;43816;52.054;-9.494;2023-04-24T00:49:47;100482.00;;;22.02;35.30
57616;BME280;43816;52.054;-9.494;2023-04-24T00:50:06;100480.31;;;22.01;35.77
57616;BME280;43816;52.054;-9.494;2023-04-24T00:50:17;100461.28;;;21.92;35.64
57616;BME280;43816;52.054;-9.494;2023-04-24T00:50:28;100479.47;;;22.00;35.60
57616;BME280;43816;52.054;-9.494;2023-04-24T00:50:38;100474.38;;;21.97;35.54
57616;BME280;43816;52.054;-9.494;2023-04-24T00:50:49;100459.34;;;21.86;35.46
57616;BME280;43816;52.054;-9.494;2023-04-24T00:50:59;100480.31;;;22.01;35.63
57616;BME280;43816;52.054;-9.494;2023-04-24T00:51:15;100461.50;;;21.91;35.52
57616;BME280;43816;52.054;-9.494;2023-04-24T00:51:26;100470.72;;;21.90;35.41
57616;BME280;43816;52.054;-9.494;2023-04-24T00:51:36;100480.50;;;21.99;35.69
57616;BME280;43816;52.054;-9.494;2023-04-24T00:51:46;100469.69;;;21.91;35.50
57616;BME280;43816;52.054;-9.494;2023-04-24T00:51:57;100488.72;;;21.99;35.61
57616;BME280;43816;52.054;-9.494;2023-04-24T00:52:13;100466.31;;;21.89;35.45
57616;BME280;43816;52.054;-9.494;2023-04-24T00:52:23;100475.81;;;21.93;35.55
57616;BME280;43816;52.054;-9.494;2023-04-24T00:52:34;100482.59;;;21.97;35.57
57616;BME280;43816;52.054;-9.494;2023-04-24T00:52:44;100478.56;;;21.93;35.48
57616;BME280;43816;52.054;-9.494;2023-04-24T00:52:58;100483.44;;;21.97;35.66
57616;BME280;43816;52.054;-9.494;2023-04-24T00:53:08;100477.31;;;21.95;35.44
57616;BME280;43816;52.054;-9.494;2023-04-24T00:53:19;100478.56;;;21.93;35.46
57616;BME280;43816;52.054;-9.494;2023-04-24T00:53:29;100489.13;;;21.96;35.45
57616;BME280;43816;52.054;-9.494;2023-04-24T00:53:39;100491.47;;;21.99;35.66
57616;BME280;43816;52.054;-9.494;2023-04-24T00:53:50;100475.19;;;21.91;35.49
57616;BME280;43816;52.054;-9.494;2023-04-24T00:54:09;100474.75;;;21.87;35.55
57616;BME280;43816;52.054;-9.494;2023-04-24T00:54:23;100486.38;;;21.96;35.55
57616;BME280;43816;52.054;-9.494;2023-04-24T00:54:49;100489.75;;;21.98;35.60
57616;BME280;43816;52.054;-9.494;2023-04-24T00:54:59;100480.66;;;21.91;35.59
57616;BME280;43816;52.054;-9.494;2023-04-24T00:55:09;100409.91;;;21.44;35.51
57616;BME280;43816;52.054;-9.494;2023-04-24T00:55:20;100440.41;;;21.63;35.47
57616;BME280;43816;52.054;-9.494;2023-04-24T00:55:30;100452.28;;;21.70;35.58
57616;BME280;43816;52.054;-9.494;2023-04-24T00:55:42;100445.94;;;21.70;35.48
57616;BME280;43816;52.054;-9.494;2023-04-24T00:55:52;100415.03;;;21.48;35.72
57616;BME280;43816;52.054;-9.494;2023-04-24T00:56:04;100393.00;;;21.34;35.54
57616;BME280;43816;52.054;-9.494;2023-04-24T00:56:14;100435.56;;;21.58;35.52
57616;BME280;43816;52.054;-9.494;2023-04-24T00:56:28;100442.97;;;21.65;35.61
57616;BME280;43816;52.054;-9.494;2023-04-24T00:56:39;100452.09;;;21.72;35.57
57616;BME280;43816;52.054;-9.494;2023-04-24T00:56:50;100491.22;;;21.94;35.49
57616;BME280;43816;52.054;-9.494;2023-04-24T00:57:02;100478.94;;;21.90;35.63
57616;BME280;43816;52.054;-9.494;2023-04-24T00:57:13;100489.91;;;21.90;35.69
57616;BME280;43816;52.054;-9.494;2023-04-24T00:57:25;100479.38;;;21.87;35.62
57616;BME280;43816;52.054;-9.494;2023-04-24T00:57:35;100458.41;;;21.72;35.50
57616;BME280;43816;52.054;-9.494;2023-04-24T00:57:46;100483.59;;;21.89;35.61
57616;BME280;43816;52.054;-9.494;2023-04-24T00:57:59;100482.75;;;21.89;35.56
57616;BME280;43816;52.054;-9.494;2023-04-24T00:58:12;100483.16;;;21.86;35.71
57616;BME280;43816;52.054;-9.494;2023-04-24T00:58:25;100478.72;;;21.85;35.61
57616;BME280;43816;52.054;-9.494;2023-04-24T00:58:36;100486.53;;;21.88;35.42
57616;BME280;43816;52.054;-9.494;2023-04-24T00:58:47;100486.91;;;21.85;35.32
57616;BME280;43816;52.054;-9.494;2023-04-24T00:58:57;100496.25;;;21.90;35.59
57616;BME280;43816;52.054;-9.494;2023-04-24T00:59:08;100493.31;;;21.92;35.60
57616;BME280;43816;52.054;-9.494;2023-04-24T00:59:18;100488.44;;;21.87;35.58
57616;BME280;43816;52.054;-9.494;2023-04-24T00:59:29;100493.31;;;21.92;35.59
57616;BME280;43816;52.054;-9.494;2023-04-24T00:59:40;100497.28;;;21.89;35.61
57616;BME280;43816;52.054;-9.494;2023-04-24T00:59:51;100466.41;;;21.74;35.52
57616;BME280;43816;52.054;-9.494;2023-04-24T01:00:03;100498.78;;;21.92;35.71
57616;BME280;43816;52.054;-9.494;2023-04-24T01:00:15;100483.78;;;21.88;35.43
57616;BME280;43816;52.054;-9.494;2023-04-24T01:00:25;100480.16;;;21.80;35.77